Time;durP1;ratioP1;P1;durP2;ratioP2;P2;SDS_P1;SDS_P2;PMS_P1;PMS_P2;Temp;Humidity;BMP_temperature;BMP_pressure;BME280_temperature;BME280_humidity;BME280_pressure;Samples;Min_cycle;Max_cycle;Signal;HPM_P1;HPM_P2
2022/06/07 00:00:56;;;;;;;3.07;2.70;;;;;18.10;96831.00;;;;5015221;28;20217;-75
2022/06/07 00:03:46;;;;;;;5.27;2.30;;;;;18.30;96827.00;;;;5018869;28;20210;-74
2022/06/07 00:06:35;;;;;;;2.80;2.40;;;;;18.50;96821.00;;;;5015972;28;20209;-74
2022/06/07 00:09:26;;;;;;;4.13;2.37;;;;;18.50;96819.00;;;;5015307;28;20210;-74
2022/06/07 00:12:17;;;;;;;3.00;2.60;;;;;18.40;96823.00;;;;5013969;28;20222;-74
2022/06/07 00:15:08;;;;;;;8.00;2.20;;;;;18.10;96821.00;;;;5017392;28;20225;-74
2022/06/07 00:17:57;;;;;;;3.60;2.67;;;;;18.50;96818.00;;;;5014668;28;20214;-74
2022/06/07 00:20:47;;;;;;;4.07;2.43;;;;;18.60;96816.00;;;;5020045;28;20688;-74
2022/06/07 00:23:36;;;;;;;3.00;2.67;;;;;18.70;96818.00;;;;5014958;28;20197;-74
2022/06/07 00:26:26;;;;;;;4.07;2.53;;;;;18.70;96814.00;;;;5014449;28;20212;-75
2022/06/07 00:29:15;;;;;;;4.23;2.73;;;;;18.60;96813.00;;;;5017491;28;20216;-73
2022/06/07 00:32:05;;;;;;;5.27;1.80;;;;;18.70;96812.00;;;;5013878;28;20221;-73
2022/06/07 00:34:54;;;;;;;2.93;2.30;;;;;18.90;96811.00;;;;5013742;28;20674;-74
2022/06/07 00:37:43;;;;;;;7.90;3.23;;;;;19.00;96820.00;;;;5015734;28;20681;-74
2022/06/07 00:40:33;;;;;;;9.43;2.47;;;;;18.90;96813.00;;;;5020105;28;20228;-74
2022/06/07 00:43:26;;;;;;;3.33;2.30;;;;;18.80;96809.00;;;;5017943;28;20214;-74
2022/06/07 00:46:16;;;;;;;3.27;2.40;;;;;18.60;96813.00;;;;5016883;28;20205;-74
2022/06/07 00:49:05;;;;;;;2.60;2.40;;;;;18.70;96797.00;;;;5017684;28;20209;-74
2022/06/07 00:51:55;;;;;;;3.27;2.40;;;;;18.80;96793.00;;;;5017953;28;20233;-74
2022/06/07 00:54:44;;;;;;;2.70;2.07;;;;;18.90;96796.00;;;;5016445;28;20836;-74
2022/06/07 00:57:33;;;;;;;5.67;3.57;;;;;18.90;96787.00;;;;5014434;28;20205;-74
2022/06/07 01:00:25;;;;;;;5.43;2.33;;;;;18.60;96780.00;;;;5011717;28;20210;-74
2022/06/07 01:03:15;;;;;;;2.43;2.10;;;;;18.40;96776.00;;;;5014346;28;20217;-74
2022/06/07 01:12:13;;;;;;;5.60;3.40;;;;;18.40;96759.00;;;;5015128;28;20237;-73
2022/06/07 01:15:03;;;;;;;2.73;2.20;;;;;18.50;96761.00;;;;5008768;28;20582;-74
2022/06/07 01:17:53;;;;;;;4.03;1.97;;;;;18.60;96754.00;;;;5016356;28;20220;-74
2022/06/07 01:20:42;;;;;;;2.47;2.17;;;;;18.40;96756.00;;;;5015570;28;20233;-75
2022/06/07 01:23:33;;;;;;;3.23;2.20;;;;;18.10;96753.00;;;;5014374;28;20205;-73
2022/06/07 01:26:22;;;;;;;2.47;2.20;;;;;17.90;96756.00;;;;5012427;28;20604;-73
2022/06/07 01:29:14;;;;;;;2.60;2.40;;;;;18.00;96750.00;;;;5013647;28;20206;-74
2022/06/07 01:32:05;;;;;;;3.30;2.60;;;;;18.30;96755.00;;;;5013403;28;20225;-74
2022/06/07 01:34:54;;;;;;;3.30;2.63;;;;;18.30;96748.00;;;;5015059;28;20214;-74
2022/06/07 01:37:43;;;;;;;3.57;2.70;;;;;18.30;96741.00;;;;5017220;28;20742;-74
2022/06/07 01:43:40;;;;;;;6.97;2.97;;;;;18.00;96728.00;;;;5014393;28;20202;-74
2022/06/07 01:46:29;;;;;;;3.57;2.90;;;;;17.80;96727.00;;;;5012392;28;20205;-75
2022/06/07 01:49:19;;;;;;;2.83;2.20;;;;;17.90;96719.00;;;;5015763;28;20560;-74
2022/06/07 01:52:09;;;;;;;2.90;2.57;;;;;17.90;96721.00;;;;5013864;28;20889;-75
2022/06/07 01:54:58;;;;;;;3.17;2.93;;;;;17.70;96709.00;;;;5014626;28;20209;-74
2022/06/07 01:57:48;;;;;;;5.47;3.10;;;;;17.60;96714.00;;;;5012815;28;20214;-74
2022/06/07 02:00:39;;;;;;;4.47;2.80;;;;;17.60;96705.00;;;;5013317;28;20198;-74
2022/06/07 02:03:28;;;;;;;2.97;2.67;;;;;17.70;96712.00;;;;5011664;28;20201;-74
2022/06/07 02:06:17;;;;;;;5.53;2.70;;;;;17.70;96715.00;;;;5013218;28;20704;-74
2022/06/07 02:09:07;;;;;;;9.40;3.33;;;;;17.70;96713.00;;;;5011912;28;20205;-74
2022/06/07 02:11:56;;;;;;;3.13;2.70;;;;;17.70;96706.00;;;;5015710;28;20224;-73
2022/06/07 02:14:47;;;;;;;4.17;3.77;;;;;17.90;96706.00;;;;5015951;28;20202;-74
2022/06/07 02:17:36;;;;;;;3.57;2.90;;;;;17.80;96709.00;;;;5014953;28;20204;-75
2022/06/07 02:20:25;;;;;;;5.13;2.67;;;;;17.70;96707.00;;;;5014726;28;20202;-75
2022/06/07 02:23:14;;;;;;;4.10;2.90;;;;;17.80;96703.00;;;;5013046;28;20210;-75
2022/06/07 02:26:05;;;;;;;4.47;2.10;;;;;17.80;96708.00;;;;5010301;28;20612;-74
2022/06/07 02:28:56;;;;;;;5.00;3.03;;;;;17.70;96693.00;;;;5015057;28;20572;-74
2022/06/07 02:31:50;;;;;;;4.53;2.60;;;;;17.80;96696.00;;;;5014294;28;20232;-74
2022/06/07 02:34:41;;;;;;;3.70;3.10;;;;;17.70;96694.00;;;;5019121;28;20292;-74
2022/06/07 02:37:30;;;;;;;4.80;2.63;;;;;17.20;96698.00;;;;5016877;28;20201;-73
2022/06/07 02:40:20;;;;;;;3.63;3.30;;;;;17.30;96693.00;;;;5018429;28;20208;-74
2022/06/07 02:43:09;;;;;;;4.13;2.77;;;;;17.40;96688.00;;;;5009863;28;20220;-74
2022/06/07 02:45:58;;;;;;;5.13;2.67;;;;;17.60;96681.00;;;;5012729;28;20567;-74
2022/06/07 02:48:50;;;;;;;2.93;2.70;;;;;17.80;96684.00;;;;5011796;28;20661;-74
2022/06/07 02:51:39;;;;;;;3.17;2.87;;;;;17.80;96690.00;;;;5015628;28;20232;-74
2022/06/07 02:54:28;;;;;;;4.80;2.80;;;;;17.60;96675.00;;;;5019205;28;20216;-75
2022/06/07 02:57:17;;;;;;;2.40;2.20;;;;;17.40;96674.00;;;;5020012;28;20198;-74
2022/06/07 03:00:07;;;;;;;3.03;2.70;;;;;17.40;96678.00;;;;5022239;28;20201;-74
2022/06/07 03:02:56;;;;;;;4.90;3.03;;;;;17.40;96670.00;;;;5020899;28;20225;-74
2022/06/07 03:05:47;;;;;;;8.13;3.40;;;;;17.30;96668.00;;;;5015204;28;20199;-74
2022/06/07 03:08:39;;;;;;;4.47;2.90;;;;;17.20;96670.00;;;;5016495;28;20718;-74
2022/06/07 03:11:28;;;;;;;3.53;3.00;;;;;17.20;96680.00;;;;5018017;28;20230;-74
2022/06/07 03:14:17;;;;;;;4.53;2.90;;;;;17.00;96676.00;;;;5017674;28;20216;-73
2022/06/07 03:17:06;;;;;;;3.57;3.27;;;;;17.10;96678.00;;;;5019315;28;20202;-74
2022/06/07 03:19:55;;;;;;;3.70;3.40;;;;;17.10;96672.00;;;;5022380;28;20194;-74
2022/06/07 03:22:46;;;;;;;2.97;2.67;;;;;17.00;96669.00;;;;5016354;28;20601;-74
2022/06/07 03:25:35;;;;;;;4.17;3.33;;;;;16.90;96672.00;;;;5015148;28;20202;-74
2022/06/07 03:28:26;;;;;;;5.37;3.27;;;;;16.90;96670.00;;;;5017790;28;20209;-74
2022/06/07 03:31:17;;;;;;;5.00;3.23;;;;;16.70;96683.00;;;;5018018;28;20227;-74
2022/06/07 03:34:07;;;;;;;3.00;2.77;;;;;17.00;96671.00;;;;5018626;28;20202;-73
2022/06/07 03:36:56;;;;;;;3.43;2.40;;;;;17.30;96672.00;;;;5017467;28;20310;-74
2022/06/07 03:39:46;;;;;;;6.60;2.80;;;;;17.50;96669.00;;;;5015792;28;20669;-74
2022/06/07 03:42:35;;;;;;;3.70;2.70;;;;;17.60;96672.00;;;;5011897;28;20708;-74
2022/06/07 03:45:24;;;;;;;7.17;2.80;;;;;17.60;96671.00;;;;5015068;28;20417;-74
2022/06/07 03:48:13;;;;;;;5.43;2.73;;;;;17.70;96673.00;;;;5014426;28;20205;-76
2022/06/07 03:51:06;;;;;;;4.00;2.50;;;;;17.30;96670.00;;;;5019112;28;20228;-73
2022/06/07 03:53:56;;;;;;;2.67;2.47;;;;;17.30;96660.00;;;;5017958;28;20200;-73
2022/06/07 03:56:46;;;;;;;6.27;2.77;;;;;17.40;96647.00;;;;5016281;28;20213;-73
2022/06/07 03:59:37;;;;;;;6.87;3.10;;;;;17.40;96644.00;;;;5016951;28;20209;-74
2022/06/07 04:02:27;;;;;;;6.67;2.90;;;;;17.20;96658.00;;;;5008471;28;20226;-73
2022/06/07 04:05:16;;;;;;;7.27;3.10;;;;;17.20;96663.00;;;;5010378;28;20198;-73
2022/06/07 04:08:11;;;;;;;3.23;2.90;;;;;17.40;96650.00;;;;5012633;28;20217;-74
2022/06/07 04:11:02;;;;;;;2.93;2.70;;;;;17.40;96639.00;;;;5012720;28;20938;-73
2022/06/07 04:13:53;;;;;;;4.87;3.53;;;;;17.30;96642.00;;;;5012888;28;20209;-74
2022/06/07 04:16:42;;;;;;;8.20;3.37;;;;;17.30;96633.00;;;;5010351;28;20233;-72
2022/06/07 04:19:32;;;;;;;4.23;2.63;;;;;17.40;96640.00;;;;5008774;28;20220;-71
2022/06/07 04:22:21;;;;;;;4.60;3.07;;;;;17.20;96642.00;;;;5016929;28;20225;-73
2022/06/07 04:25:10;;;;;;;3.37;3.10;;;;;17.10;96632.00;;;;5009182;28;20587;-73
2022/06/07 04:28:00;;;;;;;3.27;2.97;;;;;17.20;96629.00;;;;5010631;28;20213;-72
2022/06/07 04:30:51;;;;;;;4.00;3.20;;;;;17.40;96635.00;;;;4999330;28;20206;-72
2022/06/07 04:33:40;;;;;;;6.10;3.03;;;;;17.80;96631.00;;;;5014435;28;20209;-72
2022/06/07 04:36:30;;;;;;;4.83;3.00;;;;;17.90;96630.00;;;;5012109;28;20206;-73
2022/06/07 04:39:19;;;;;;;3.53;2.73;;;;;18.10;96634.00;;;;5020695;28;20669;-73
2022/06/07 04:42:08;;;;;;;3.37;2.87;;;;;18.10;96633.00;;;;5022927;28;20229;-73
2022/06/07 04:44:57;;;;;;;3.60;2.80;;;;;18.40;96628.00;;;;5016328;28;20206;-72
2022/06/07 04:47:49;;;;;;;4.23;2.70;;;;;18.60;96625.00;;;;5003156;28;20240;-71
2022/06/07 04:50:38;;;;;;;3.90;3.60;;;;;18.80;96621.00;;;;5009057;28;20220;-70
2022/06/07 04:53:27;;;;;;;3.17;2.17;;;;;18.80;96622.00;;;;5044697;23;20247;-69
2022/06/07 04:56:18;;;;;;;2.40;2.20;;;;;18.60;96623.00;;;;5028826;28;20210;-68
2022/06/07 04:59:08;;;;;;;2.93;2.57;;;17.40;99.90;18.90;96626.00;;;;5028874;28;20216;-69
2022/06/07 05:01:57;;;;;;;2.83;2.50;;;17.40;99.90;19.00;96617.00;;;;5020638;28;20221;-69
2022/06/07 05:04:47;;;;;;;2.63;2.43;;;17.50;99.90;18.90;96618.00;;;;5028964;28;20205;-69
2022/06/07 05:07:37;;;;;;;2.67;2.43;;;17.60;99.90;19.00;96612.00;;;;5029246;28;20207;-70
2022/06/07 05:10:27;;;;;;;3.73;2.83;;;18.20;99.90;19.00;96612.00;;;;5023624;28;20197;-69
2022/06/07 05:13:16;;;;;;;5.17;2.70;;;17.80;99.90;19.30;96603.00;;;;5028046;28;20685;-69
2022/06/07 05:16:06;;;;;;;3.87;2.87;;;17.80;99.90;19.60;96607.00;;;;5029791;28;20194;-69
2022/06/07 05:18:56;;;;;;;5.00;3.10;;;18.00;99.90;19.70;96598.00;;;;5029344;28;20205;-69
2022/06/07 05:21:47;;;;;;;3.50;3.20;;;18.10;99.90;20.20;96603.00;;;;5026125;28;20212;-69
2022/06/07 05:24:37;;;;;;;5.30;4.53;;;18.30;99.90;20.30;96585.00;;;;5027618;28;20599;-69
2022/06/07 05:27:27;;;;;;;3.93;3.53;;;18.50;99.90;20.50;96590.00;;;;5025356;28;20213;-69
2022/06/07 05:30:17;;;;;;;4.03;3.13;;;18.70;99.90;20.90;96592.00;;;;5026049;28;20206;-69
2022/06/07 05:33:06;;;;;;;5.53;2.83;;;18.90;99.90;21.30;96597.00;;;;5022293;28;20224;-69
2022/06/07 05:35:56;;;;;;;8.70;3.53;;;19.10;99.90;21.40;96604.00;;;;5030916;28;20205;-69
2022/06/07 05:38:46;;;;;;;9.63;2.87;;;19.30;99.90;21.20;96601.00;;;;5029908;28;20201;-68
2022/06/07 05:41:35;;;;;;;4.00;2.90;;;19.50;99.90;21.40;96595.00;;;;5028176;28;20216;-69
2022/06/07 05:44:26;;;;;;;6.80;3.13;;;19.60;99.90;21.90;96600.00;;;;5028805;28;20225;-69
2022/06/07 05:47:15;;;;;;;5.83;4.53;;;19.80;99.90;21.70;96605.00;;;;5029493;28;20197;-68
2022/06/07 05:50:07;;;;;;;7.93;3.17;;;19.90;99.90;21.30;96602.00;;;;5027549;28;20205;-69
2022/06/07 05:52:56;;;;;;;6.60;3.37;;;19.90;99.90;21.30;96608.00;;;;5026083;28;20236;-69
2022/06/07 05:55:47;;;;;;;4.80;2.70;;;19.90;99.90;21.70;96605.00;;;;5027036;28;20198;-69
2022/06/07 05:58:37;;;;;;;4.80;2.40;;;20.00;99.90;21.80;96603.00;;;;5028141;28;20201;-69
2022/06/07 06:01:26;;;;;;;5.23;3.13;;;20.00;99.90;21.70;96610.00;;;;5024219;28;20197;-69
2022/06/07 06:04:16;;;;;;;6.17;2.63;;;20.10;99.90;22.00;96600.00;;;;5026982;28;20237;-69
2022/06/07 06:07:05;;;;;;;3.27;3.03;;;20.10;99.90;21.70;96605.00;;;;5024805;28;20198;-69
2022/06/07 06:13:01;;;;;;;5.73;3.63;;;20.30;99.90;22.10;96595.00;;;;5027394;28;20213;-68
2022/06/07 06:15:50;;;;;;;5.27;3.13;;;20.40;99.90;22.50;96619.00;;;;5026581;28;20212;-68
2022/06/07 06:18:39;;;;;;;5.17;2.53;;;20.50;99.90;22.50;96601.00;;;;5027927;28;20210;-69
2022/06/07 06:21:30;;;;;;;5.20;2.63;;;20.60;99.90;22.40;96596.00;;;;5026803;28;20677;-69
2022/06/07 06:24:23;;;;;;;4.60;2.57;;;20.60;99.90;22.40;96593.00;;;;5013061;28;20221;-69
2022/06/07 06:27:12;;;;;;;7.83;2.57;;;20.70;99.90;22.60;96587.00;;;;5027025;28;20201;-69
2022/06/07 06:30:03;;;;;;;6.67;2.77;;;20.80;99.90;22.90;96595.00;;;;5025707;28;20202;-69
2022/06/07 06:32:52;;;;;;;3.10;2.80;;;21.00;99.90;23.10;96584.00;;;;5022721;28;20225;-68
2022/06/07 06:35:47;;;;;;;3.67;2.97;;;21.20;99.90;23.00;96589.00;;;;5027621;28;20193;-68
2022/06/07 06:38:37;;;;;;;3.40;2.43;;;21.30;99.90;23.60;96590.00;;;;5025184;28;20193;-68
2022/06/07 06:41:29;;;;;;;3.90;3.10;;;21.50;99.90;24.00;96587.00;;;;5024115;28;20213;-69
2022/06/07 06:44:18;;;;;;;7.40;3.20;;;21.80;99.90;24.50;96583.00;;;;5024044;28;20236;-69
2022/06/07 06:47:09;;;;;;;2.43;2.23;;;22.00;99.90;24.60;96591.00;;;;5025295;28;20669;-69
2022/06/07 06:49:57;;;;;;;2.60;2.37;;;22.20;99.90;24.40;96589.00;;;;5026508;28;20197;-69
2022/06/07 06:52:46;;;;;;;4.23;2.70;;;22.40;99.90;24.10;96602.00;;;;5020630;28;20233;-69
2022/06/07 06:55:35;;;;;;;2.63;2.43;;;22.40;99.90;24.00;96587.00;;;;5029116;28;20205;-68
2022/06/07 06:58:25;;;;;;;2.33;2.13;;;22.20;99.90;23.90;96597.00;;;;5023515;28;20201;-69
2022/06/07 07:01:16;;;;;;;2.57;2.20;;;22.30;99.90;23.60;96587.00;;;;5027321;28;20193;-69
2022/06/07 07:04:10;;;;;;;4.10;2.23;;;22.30;99.90;23.60;96590.00;;;;5027360;28;20588;-69
2022/06/07 07:06:59;;;;;;;3.00;2.20;;;22.10;99.90;24.10;96571.00;;;;5026422;28;20715;-68
2022/06/07 07:09:49;;;;;;;4.30;2.70;;;22.20;99.90;24.40;96576.00;;;;5027061;28;20197;-68
2022/06/07 07:12:39;;;;;;;2.47;2.20;;;22.30;99.90;24.10;96572.00;;;;5026201;28;20615;-69
2022/06/07 07:15:27;;;;;;;4.40;2.10;;;22.40;99.90;24.50;96575.00;;;;5027622;28;20204;-69
2022/06/07 07:18:16;;;;;;;1.47;1.37;;;22.50;99.90;24.90;96563.00;;;;5027322;28;20205;-69
2022/06/07 07:21:09;;;;;;;2.40;2.20;;;22.70;99.90;25.40;96562.00;;;;5026075;28;20208;-69
2022/06/07 07:23:58;;;;;;;5.47;1.87;;;22.90;99.90;25.50;96557.00;;;;5028755;28;20229;-68
2022/06/07 07:26:48;;;;;;;2.87;2.13;;;23.20;99.90;25.70;96560.00;;;;5025756;28;20193;-69
2022/06/07 07:29:39;;;;;;;3.03;1.87;;;23.30;99.90;25.80;96559.00;;;;5027466;28;20201;-69
2022/06/07 07:32:28;;;;;;;3.50;2.20;;;23.60;99.90;26.10;96561.00;;;;5020463;28;20232;-68
2022/06/07 07:35:18;;;;;;;3.37;2.00;;;23.80;99.90;26.60;96566.00;;;;5029588;28;20203;-69
2022/06/07 07:38:08;;;;;;;4.10;2.03;;;24.00;99.90;26.70;96555.00;;;;5029170;28;20307;-69
2022/06/07 07:40:57;;;;;;;2.97;2.47;;;24.30;99.90;26.20;96561.00;;;;5029972;28;20203;-68
2022/06/07 07:43:47;;;;;;;2.10;1.90;;;24.40;99.90;26.40;96564.00;;;;5030713;28;20790;-69
2022/06/07 07:46:38;;;;;;;3.00;2.10;;;24.50;99.90;26.40;96563.00;;;;5028279;28;20782;-69
2022/06/07 07:49:28;;;;;;;2.13;1.40;;;24.50;99.90;26.60;96558.00;;;;5029302;28;20203;-69
2022/06/07 07:52:19;;;;;;;2.10;1.70;;;24.60;99.90;26.30;96561.00;;;;5030977;28;20223;-69
2022/06/07 07:55:11;;;;;;;1.60;1.50;;;24.60;99.90;26.40;96560.00;;;;5029777;28;20704;-69
2022/06/07 07:58:00;;;;;;;1.77;1.67;;;24.70;99.90;27.30;96554.00;;;;5017782;28;20412;-69
2022/06/07 08:00:50;;;;;;;1.60;1.43;;;24.80;99.90;27.80;96551.00;;;;5019275;28;20688;-69
2022/06/07 08:03:39;;;;;;;2.83;1.60;;;25.10;99.90;28.00;96552.00;;;;5031286;28;20225;-69
2022/06/07 08:06:32;;;;;;;1.60;1.50;;;25.40;99.90;27.90;96543.00;;;;5031348;28;20191;-69
2022/06/07 08:09:23;;;;;;;1.57;1.47;;;25.60;99.90;27.70;96536.00;;;;5031091;28;20207;-69
2022/06/07 08:12:13;;;;;;;2.00;1.63;;;25.80;99.90;27.00;96535.00;;;;5032377;28;20219;-69
2022/06/07 08:15:02;;;;;;;3.17;2.50;;;25.80;99.90;28.00;96528.00;;;;5017269;28;20215;-69
2022/06/07 08:17:51;;;;;;;1.70;1.40;;;25.80;99.90;28.70;96534.00;;;;5027039;28;20571;-69
2022/06/07 08:20:40;;;;;;;3.27;1.87;;;26.00;98.00;27.50;96539.00;;;;5028264;28;20700;-69
2022/06/07 08:23:30;;;;;;;2.93;1.57;;;26.20;95.20;27.80;96539.00;;;;5025930;28;20224;-69
2022/06/07 08:26:20;;;;;;;2.57;2.17;;;26.10;94.30;27.50;96551.00;;;;5031021;28;20200;-69
2022/06/07 08:29:12;;;;;;;2.97;2.07;;;26.00;93.50;27.30;96558.00;;;;5025532;28;20200;-69
2022/06/07 08:32:01;;;;;;;4.80;2.03;;;25.80;92.50;27.30;96548.00;;;;5022777;28;20223;-69
2022/06/07 08:37:56;;;;;;;2.10;1.73;;;25.50;91.80;26.90;96544.00;;;;5022274;28;20198;-68
2022/06/07 08:40:46;;;;;;;2.53;1.70;;;25.40;92.80;26.50;96541.00;;;;5030023;28;20191;-68
2022/06/07 08:43:35;;;;;;;3.77;2.20;;;25.20;93.00;26.20;96540.00;;;;5023280;28;20606;-68
2022/06/07 08:46:30;;;;;;;2.27;1.63;;;25.10;92.70;26.30;96539.00;;;;5025688;28;20218;-68
2022/06/07 08:49:20;;;;;;;3.00;1.67;;;24.90;91.80;26.40;96542.00;;;;5025120;28;20208;-68
2022/06/07 08:52:15;;;;;;;1.50;1.40;;;24.80;91.90;26.90;96531.00;;;;5024744;28;20229;-69
2022/06/07 08:55:15;;;;;;;1.40;1.30;;;24.90;91.90;27.10;96525.00;;;;5026777;28;20942;-69
2022/06/07 08:58:17;;;;;;;3.73;1.80;;;25.00;91.50;27.40;96526.00;;;;5028445;28;20214;-68
2022/06/07 09:01:22;;;;;;;1.70;1.60;;;25.20;92.10;27.60;96530.00;;;;5024512;28;20206;-69
2022/06/07 09:04:19;;;;;;;3.57;2.67;;;25.30;92.80;27.80;96530.00;;;;5027147;28;20586;-69
2022/06/07 09:07:15;;;;;;;3.50;1.90;;;25.50;93.30;28.00;96523.00;;;;5020443;28;20211;-69
2022/06/07 09:13:19;;;;;;;2.73;1.60;;;25.90;93.10;28.30;96514.00;;;;5027546;28;20728;-69
2022/06/07 09:16:12;;;;;;;3.57;1.80;;;26.00;92.50;28.50;96514.00;;;;5030578;28;20251;-69
2022/06/07 09:19:01;;;;;;;1.63;1.53;;;26.20;92.30;28.70;96512.00;;;;5028436;28;20231;-69
2022/06/07 09:21:53;;;;;;;2.43;1.60;;;26.50;92.40;28.70;96511.00;;;;5028414;28;20220;-69
2022/06/07 09:24:49;;;;;;;3.33;1.53;;;26.60;90.40;28.70;96522.00;;;;5025635;28;20226;-69
2022/06/07 09:27:39;;;;;;;1.63;1.53;;;26.60;91.00;28.70;96520.00;;;;5021519;28;20206;-68
2022/06/07 09:30:34;;;;;;;3.67;1.73;;;26.70;90.30;29.10;96510.00;;;;5023043;28;20216;-69
2022/06/07 09:33:27;;;;;;;2.33;1.70;;;26.80;90.10;28.10;96494.00;;;;5013860;28;20603;-69
2022/06/07 09:36:22;;;;;;;3.40;1.80;;;26.80;87.40;28.70;96497.00;;;;5020698;28;20242;-68
2022/06/07 09:39:19;;;;;;;1.80;1.70;;;26.80;88.50;29.30;96493.00;;;;5014944;28;20680;-69
2022/06/07 09:42:23;;;;;;;3.43;2.00;;;27.00;90.00;29.60;96485.00;;;;5011427;28;20251;-69
2022/06/07 09:45:29;;;;;;;2.33;1.90;;;27.20;87.80;29.60;96473.00;;;;5010636;28;20237;-69
2022/06/07 09:48:28;;;;;;;1.87;1.73;;;27.40;86.60;30.10;96484.00;;;;5017335;28;20210;-69
2022/06/07 09:51:21;;;;;;;3.43;1.90;;;27.80;86.20;29.80;96483.00;;;;5014169;28;20223;-68
2022/06/07 09:54:20;;;;;;;1.63;1.53;;;27.90;80.00;28.90;96472.00;;;;5014995;28;20194;-69
2022/06/07 09:57:26;;;;;;;2.50;1.53;;;27.80;77.30;29.80;96464.00;;;;5015201;28;20206;-69
2022/06/07 10:00:23;;;;;;;3.53;2.00;;;27.80;78.90;28.30;96469.00;;;;5014963;28;20228;-69
2022/06/07 10:03:33;;;;;;;3.53;2.07;;;27.60;78.20;28.60;96459.00;;;;5025780;28;20219;-69
2022/06/07 10:06:27;;;;;;;2.03;1.93;;;27.40;78.20;28.90;96486.00;;;;5026870;28;20227;-68
2022/06/07 10:09:36;;;;;;;3.30;2.00;;;27.30;77.50;29.00;96477.00;;;;5026358;28;20220;-69
2022/06/07 10:12:34;;;;;;;2.30;1.87;;;27.20;79.60;28.70;96465.00;;;;5027379;28;20813;-69
2022/06/07 10:15:33;;;;;;;6.40;2.17;;;27.10;79.80;29.00;96466.00;;;;5028408;28;20212;-69
2022/06/07 10:18:46;;;;;;;1.97;1.77;;;27.20;82.60;28.10;96464.00;;;;5026069;28;20331;-69
2022/06/07 10:22:12;;;;;;;3.83;1.97;;;27.20;79.30;29.10;96457.00;;;;5027612;28;20221;-69
2022/06/07 10:25:15;;;;;;;1.90;1.43;;;27.10;82.10;29.10;96444.00;;;;5022534;28;20231;-69
2022/06/07 10:28:14;;;;;;;1.90;1.80;;;27.20;79.10;29.60;96451.00;;;;5021076;28;20484;-69
2022/06/07 10:31:11;;;;;;;3.10;1.70;;;27.30;82.90;29.70;96458.00;;;;5020940;28;20204;-69
2022/06/07 10:34:06;;;;;;;2.20;2.00;;;27.50;82.50;28.60;96445.00;;;;5024432;28;20828;-68
2022/06/07 10:37:09;;;;;;;4.43;2.13;;;27.50;81.80;29.30;96445.00;;;;5024638;28;20702;-69
2022/06/07 10:40:12;;;;;;;2.23;2.03;;;27.50;82.00;29.50;96459.00;;;;5021844;28;20193;-68
2022/06/07 10:43:09;;;;;;;2.97;1.90;;;27.50;83.90;29.50;96455.00;;;;5025801;28;20224;-68
2022/06/07 10:46:00;;;;;;;1.80;1.70;;;27.50;84.40;29.80;96442.00;;;;5027327;28;20227;-69
2022/06/07 10:49:05;;;;;;;4.10;2.20;;;27.60;85.50;30.00;96445.00;;;;5026915;28;20201;-69
2022/06/07 10:55:22;;;;;;;1.83;1.73;;;27.80;85.10;28.00;96441.00;;;;5024584;28;20203;-69
2022/06/07 10:58:32;;;;;;;4.03;2.13;;;27.40;82.90;27.70;96425.00;;;;5023565;28;20210;-68
2022/06/07 11:01:27;;;;;;;2.50;2.10;;;26.90;83.10;28.20;96399.00;;;;5026306;28;20192;-68
2022/06/07 11:10:51;;;;;;;2.07;1.63;;;27.40;85.90;31.80;96355.00;;;;5026964;28;20209;-75
2022/06/07 11:13:54;;;;;;;2.37;1.57;;;28.20;85.90;31.90;96368.00;;;;5030899;28;20218;-68
2022/06/07 11:16:54;;;;;;;2.60;1.63;;;28.90;79.40;32.60;96377.00;;;;5024837;28;20221;-69
2022/06/07 11:19:43;;;;;;;2.20;2.00;;;29.40;80.10;32.40;96390.00;;;;5025399;28;20205;-70
2022/06/07 11:22:36;;;;;;;1.70;1.60;;;29.80;79.20;29.50;96371.00;;;;5031887;28;20214;-77
2022/06/07 11:25:34;;;;;;;2.08;1.88;;;29.40;73.00;30.00;96417.00;;;;5027967;28;20240;-71
2022/06/07 11:28:27;;;;;;;1.92;1.75;;;29.00;75.80;30.00;96408.00;;;;5024919;28;20590;-68
2022/06/07 11:31:44;;;;;;;2.35;2.15;;;28.70;77.90;30.20;96401.00;;;;5024496;28;20209;-70
2022/06/07 11:34:35;;;;;;;2.97;2.10;;;28.60;78.40;30.00;96372.00;;;;5029550;28;20710;-68
2022/06/07 11:37:34;;;;;;;3.97;2.03;;;28.60;75.20;30.80;96389.00;;;;5030288;28;20229;-72
2022/06/07 11:40:31;;;;;;;3.85;2.10;;;28.80;77.70;30.50;96380.00;;;;5029689;28;20200;-72
2022/06/07 11:44:00;;;;;;;5.00;1.60;;;28.80;75.40;31.30;96404.00;;;;5028949;28;20207;-70
2022/06/07 11:47:14;;;;;;;2.55;2.05;;;28.90;76.60;30.80;96399.00;;;;5028490;28;20225;-70
2022/06/07 11:50:14;;;;;;;2.85;2.38;;;28.90;78.00;30.20;96391.00;;;;5029494;28;20215;-73
2022/06/07 11:53:27;;;;;;;4.45;2.33;;;28.80;78.10;30.00;96392.00;;;;5029611;28;20582;-76
2022/06/07 11:56:30;;;;;;;2.50;2.20;;;28.50;79.00;30.10;96372.00;;;;5026562;28;20227;-75
2022/06/07 11:59:43;;;;;;;4.25;1.90;;;28.50;80.90;30.40;96393.00;;;;5028285;28;20208;-76
2022/06/07 12:02:35;;;;;;;2.50;2.08;;;28.50;79.40;30.20;96393.00;;;;5025780;28;20212;-70
2022/06/07 12:05:28;;;;;;;2.40;1.75;;;28.40;78.80;30.80;96383.00;;;;5026054;28;20216;-71
2022/06/07 12:08:25;;;;;;;1.92;1.83;;;28.50;80.10;30.90;96382.00;;;;5022093;28;20722;-69
2022/06/07 12:11:23;;;;;;;2.28;1.80;;;28.60;79.20;31.00;96376.00;;;;5029615;28;20219;-69
2022/06/07 12:14:26;;;;;;;2.00;1.75;;;28.70;78.90;31.20;96362.00;;;;5027595;28;20727;-69
2022/06/07 12:17:29;;;;;;;1.95;1.83;;;29.00;78.80;30.80;96379.00;;;;5028469;28;20225;-69
2022/06/07 12:20:28;;;;;;;1.95;1.67;;;28.90;76.10;30.90;96379.00;;;;5024520;28;20277;-71
2022/06/07 12:23:22;;;;;;;1.73;1.40;;;28.90;76.00;30.40;96371.00;;;;5020926;28;20643;-78
2022/06/07 12:26:21;;;;;;;5.80;1.67;;;28.80;71.20;30.20;96361.00;;;;5022699;28;20240;-79
2022/06/07 12:29:21;;;;;;;3.75;1.40;;;28.50;69.90;29.70;96359.00;;;;5025120;28;20203;-73
2022/06/07 12:32:19;;;;;;;4.10;1.58;;;28.30;70.00;30.10;96366.00;;;;5020816;28;20210;-74
2022/06/07 12:35:19;;;;;;;2.95;1.63;;;28.20;73.60;27.70;96372.00;;;;5021517;28;20200;-70
2022/06/07 12:38:16;;;;;;;2.23;1.60;;;27.80;69.40;28.80;96382.00;;;;5019080;28;20308;-77
2022/06/07 12:41:07;;;;;;;1.40;1.30;;;27.40;74.20;29.40;96382.00;;;;5022668;28;20689;-75
2022/06/07 12:43:59;;;;;;;1.40;1.30;;;27.40;74.20;29.40;96390.00;;;;5021713;28;20199;-76
2022/06/07 12:46:48;;;;;;;1.60;1.50;;;27.30;75.60;29.00;96389.00;;;;5024768;28;20227;-76
2022/06/07 12:49:44;;;;;;;3.43;1.47;;;27.30;75.60;28.70;96388.00;;;;5026006;28;20198;-76
2022/06/07 12:52:35;;;;;;;2.33;1.43;;;27.20;75.10;28.70;96395.00;;;;5019552;28;20207;-77
2022/06/07 12:55:27;;;;;;;1.80;1.70;;;27.10;75.40;28.40;96385.00;;;;5014868;28;20215;-76
2022/06/07 12:58:19;;;;;;;2.87;1.33;;;26.90;74.90;28.00;96380.00;;;;5012105;28;20235;-76
2022/06/07 13:01:23;;;;;;;1.63;1.37;;;26.80;74.20;27.80;96373.00;;;;5019856;28;20599;-76
2022/06/07 13:04:19;;;;;;;1.40;1.30;;;26.60;76.80;27.30;96384.00;;;;5022562;28;20209;-75
2022/06/07 13:07:21;;;;;;;1.77;1.50;;;26.40;77.00;27.90;96373.00;;;;5015912;28;20232;-76
2022/06/07 13:10:35;;;;;;;2.20;2.00;;;26.20;78.10;27.90;96378.00;;;;5016918;28;20204;-77
2022/06/07 13:13:28;;;;;;;2.63;1.47;;;26.20;79.60;27.70;96369.00;;;;5020515;28;20564;-79
2022/06/07 13:16:37;;;;;;;2.87;1.50;;;26.10;80.00;27.70;96363.00;;;;5022218;28;20315;-77
2022/06/07 13:19:29;;;;;;;2.00;1.80;;;26.00;81.80;27.10;96362.00;;;;5020399;28;20763;-76
2022/06/07 13:22:19;;;;;;;2.37;1.87;;;25.90;82.90;27.00;96364.00;;;;5023712;28;20493;-76
2022/06/07 13:25:19;;;;;;;1.77;1.67;;;25.80;83.80;26.00;96358.00;;;;5022409;28;20202;-77
2022/06/07 13:28:19;;;;;;;1.70;1.57;;;25.50;80.40;25.90;96353.00;;;;5021264;28;20243;-71
2022/06/07 13:31:31;;;;;;;1.63;1.53;;;25.20;81.30;25.50;96346.00;;;;5025087;28;20227;-67
2022/06/07 13:34:24;;;;;;;1.90;1.80;;;24.90;81.50;25.90;96345.00;;;;5028267;28;20228;-76
2022/06/07 13:37:19;;;;;;;1.80;1.70;;;24.80;82.90;26.00;96355.00;;;;5026927;28;20225;-78
2022/06/07 13:40:26;;;;;;;1.90;1.47;;;24.70;84.20;25.70;96354.00;;;;5024134;28;20304;-72
2022/06/07 13:43:22;;;;;;;2.83;1.67;;;24.70;84.50;25.70;96364.00;;;;5017851;28;20202;-74
2022/06/07 13:46:24;;;;;;;3.30;2.07;;;24.60;84.40;25.30;96351.00;;;;5019698;28;20245;-79
2022/06/07 13:55:49;;;;;;;2.20;2.07;;;24.20;85.50;24.90;96356.00;;;;5014557;28;20210;-68